Time;durP1;ratioP1;P1;durP2;ratioP2;P2;SDS_P1;SDS_P2;PMS_P1;PMS_P2;Temp;Humidity;BMP_temperature;BMP_pressure;BME280_temperature;BME280_humidity;BME280_pressure;Samples;Min_cycle;Max_cycle;Signal;HPM_P1;HPM_P2
2023/05/05 00:02:22;;;;;;;7.05;4.20;;;;;;;;;;6257924;28;20054;-78
2023/05/05 00:05:24;;;;;;;6.60;4.70;;;;;;;;;;6238597;28;20044;-78
2023/05/05 00:08:27;;;;;;;7.28;4.63;;;;;;;;;;6240459;28;20499;-78
2023/05/05 00:11:28;;;;;;;8.25;5.05;;;;;;;;;;6238457;28;20133;-78
2023/05/05 00:14:30;;;;;;;8.60;5.03;;;;;;;;;;6237723;28;20060;-78
2023/05/05 00:17:31;;;;;;;6.60;4.90;;;;;;;;;;6240147;28;20048;-78
2023/05/05 00:20:33;;;;;;;8.68;5.05;;;;;;;;;;6254852;28;20076;-77
2023/05/05 00:23:35;;;;;;;6.50;4.53;;;;;;;;;;6236666;28;20391;-78
2023/05/05 00:26:36;;;;;;;7.80;5.00;;;;;;;;;;6239898;28;20054;-77
2023/05/05 00:29:38;;;;;;;9.18;5.30;;;;;;;;;;6236143;28;20512;-78
2023/05/05 00:32:39;;;;;;;7.78;4.50;;;;;;;;;;6230613;28;20457;-78
2023/05/05 00:35:41;;;;;;;6.05;4.30;;;;;;;;;;6215610;28;20042;-78
2023/05/05 00:38:43;;;;;;;7.53;4.93;;;;;;;;;;6229512;28;20518;-78
2023/05/05 00:41:44;;;;;;;6.57;4.97;;;;;;;;;;6233165;28;20052;-78
2023/05/05 00:44:46;;;;;;;8.57;4.82;;;;;;;;;;6241284;28;20041;-77
2023/05/05 00:47:51;;;;;;;5.82;4.72;;;;;;;;;;6228999;28;20042;-78
2023/05/05 00:50:52;;;;;;;5.90;4.60;;;;;;;;;;6214770;28;20045;-77
2023/05/05 00:53:54;;;;;;;7.78;4.50;;;;;;;;;;6221056;28;20169;-78
2023/05/05 00:56:56;;;;;;;8.60;5.20;;;;;;;;;;6217738;28;20034;-78
2023/05/05 00:59:58;;;;;;;9.90;5.45;;;;;;;;;;6220692;28;20115;-78
2023/05/05 01:03:00;;;;;;;7.53;4.97;;;;;;;;;;6222566;28;20049;-78
2023/05/05 01:06:17;;;;;;;10.30;5.68;;;;;;;;;;6240538;28;20125;-78
2023/05/05 01:09:27;;;;;;;7.55;4.65;;;;;;;;;;6242666;28;20048;-78
2023/05/05 01:12:34;;;;;;;7.95;5.38;;;;;;;;;;6240334;28;20412;-78
2023/05/05 01:15:46;;;;;;;6.97;5.47;;;;;;;;;;6239709;28;20045;-77
2023/05/05 01:19:03;;;;;;;8.85;4.95;;;;;;;;;;6240849;28;20618;-78
2023/05/05 01:22:07;;;;;;;8.07;4.97;;;;;;;;;;6239939;28;20057;-78
2023/05/05 01:25:47;;;;;;;8.07;4.88;;;;;;;;;;6235349;28;20042;-79
2023/05/05 01:29:01;;;;;;;9.45;4.75;;;;;;;;;;6206852;28;20058;-78
2023/05/05 01:32:08;;;;;;;7.05;4.53;;;;;;;;;;6234120;28;20129;-78
2023/05/05 01:35:17;;;;;;;8.50;4.97;;;;;;;;;;6246814;28;20525;-77
2023/05/05 01:38:21;;;;;;;6.50;4.78;;;;;;;;;;6239944;28;20051;-78
2023/05/05 01:41:32;;;;;;;7.35;4.90;;;;;;;;;;6256190;28;20233;-79
2023/05/05 01:44:35;;;;;;;7.03;4.97;;;;;;;;;;6243818;28;20064;-78
2023/05/05 01:47:39;;;;;;;7.85;5.35;;;;;;;;;;6239393;28;20045;-78
2023/05/05 01:50:42;;;;;;;5.53;4.25;;;;;;;;;;6253142;28;20056;-80
2023/05/05 01:53:46;;;;;;;;;;;;;;;;;;6252872;28;20038;-80
2023/05/05 01:56:48;;;;;;;6.53;4.32;;;;;;;;;;6246844;28;19928;-79
2023/05/05 01:59:51;;;;;;;7.25;4.70;;;;;;;;;;6242792;28;20470;-79
2023/05/05 02:02:58;;;;;;;8.20;4.65;;;;;;;;;;6245455;28;20042;-79
2023/05/05 02:06:01;;;;;;;8.90;5.18;;;;;;;;;;6243876;28;20038;-78
2023/05/05 02:09:04;;;;;;;9.27;5.95;;;;;;;;;;6234984;28;20087;-80
2023/05/05 02:12:07;;;;;;;7.97;5.43;;;;;;;;;;6239711;28;20179;-79
2023/05/05 02:15:10;;;;;;;7.28;5.15;;;;;;;;;;6239600;28;20046;-79
2023/05/05 02:18:13;;;;;;;10.15;4.47;;;;;;;;;;6238611;28;20124;-78
2023/05/05 02:21:16;;;;;;;9.00;5.30;;;;;;;;;;6236348;28;20057;-78
2023/05/05 02:24:18;;;;;;;7.47;5.47;;;;;;;;;;6239085;28;20053;-79
2023/05/05 02:27:23;;;;;;;8.07;5.50;;;;;;;;;;6243788;28;20687;-78
2023/05/05 02:30:28;;;;;;;9.57;5.97;;;;;;;;;;6240433;28;20052;-78
2023/05/05 02:33:32;;;;;;;10.07;6.45;;;;;;;;;;6234826;28;20581;-79
2023/05/05 02:36:38;;;;;;;7.13;4.85;;;;;;;;;;6243253;28;20056;-78
2023/05/05 02:40:09;;;;;;;9.13;5.32;;;;;;;;;;6251645;28;20042;-78
2023/05/05 02:43:20;;;;;;;9.38;5.13;;;;;;;;;;6241974;28;20045;-79
2023/05/05 02:46:22;;;;;;;7.95;4.97;;;;;;;;;;6264099;28;20411;-79
2023/05/05 02:49:23;;;;;;;8.82;5.60;;;;;;;;;;6246773;28;20049;-80
2023/05/05 02:52:31;;;;;;;8.98;5.35;;;;;;;;;;6260354;28;20518;-79
2023/05/05 02:55:42;;;;;;;9.35;5.40;;;;;;;;;;6247963;28;20057;-79
2023/05/05 02:58:53;;;;;;;8.93;5.43;;;;;;;;;;6262640;28;20053;-79
2023/05/05 03:02:07;;;;;;;9.50;5.68;;;;;;;;;;6242044;28;20128;-80
2023/05/05 03:05:20;;;;;;;7.38;4.57;;;;;;;;;;6243558;28;20128;-80
2023/05/05 03:08:28;;;;;;;9.60;5.28;;;;;;;;;;6259703;28;20083;-79
2023/05/05 03:11:42;;;;;;;7.72;4.93;;;;;;;;;;6246177;28;20577;-79
2023/05/05 03:14:45;;;;;;;8.68;5.15;;;;;;;;;;6249487;28;20045;-80
2023/05/05 03:17:51;;;;;;;6.97;5.10;;;;;;;;;;6236129;28;20045;-79
2023/05/05 03:20:54;;;;;;;6.97;4.68;;;;;;;;;;6258795;28;20168;-79
2023/05/05 03:23:57;;;;;;;8.27;4.40;;;;;;;;;;6242907;28;20056;-79
2023/05/05 03:26:58;;;;;;;9.57;4.90;;;;;;;;;;6238979;28;20398;-79
2023/05/05 03:30:07;;;;;;;7.07;5.20;;;;;;;;;;6242321;28;20128;-79
2023/05/05 03:33:15;;;;;;;8.50;5.55;;;;;;;;;;6240013;28;20049;-80
2023/05/05 03:36:16;;;;;;;10.75;6.00;;;;;;;;;;6243312;28;20053;-79
2023/05/05 03:39:18;;;;;;;8.90;5.10;;;;;;;;;;6241933;28;20056;-79
2023/05/05 03:42:21;;;;;;;9.57;5.13;;;;;;;;;;6235981;28;20037;-79
2023/05/05 03:45:23;;;;;;;8.30;5.18;;;;;;;;;;6260884;28;20143;-79
2023/05/05 03:48:24;;;;;;;7.70;5.13;;;;;;;;;;6240873;28;20382;-79
2023/05/05 03:51:26;;;;;;;8.50;5.32;;;;;;;;;;6220370;28;20068;-80
2023/05/05 03:54:28;;;;;;;8.43;5.57;;;;;;;;;;6226483;28;20053;-79
2023/05/05 03:57:30;;;;;;;7.20;5.25;;;;;;;;;;6239447;28;20067;-79
2023/05/05 04:00:32;;;;;;;7.75;5.57;;;;;;;;;;6243824;28;20275;-78
2023/05/05 04:03:34;;;;;;;9.57;5.95;;;;;;;;;;6229092;28;20415;-80
2023/05/05 04:06:36;;;;;;;9.35;6.00;;;;;;;;;;6242737;28;20049;-79
2023/05/05 04:09:43;;;;;;;10.75;5.97;;;;;;;;;;6237079;28;20052;-79
2023/05/05 04:12:45;;;;;;;9.38;5.45;;;;;;;;;;6242704;28;20095;-79
2023/05/05 04:15:47;;;;;;;9.20;5.15;;;;;;;;;;6235563;28;20529;-80
2023/05/05 04:18:50;;;;;;;8.45;5.30;;;;;;;;;;6239687;28;20041;-79
2023/05/05 04:21:52;;;;;;;9.73;5.95;;;;;;;;;;6243765;28;20180;-80
2023/05/05 04:24:54;;;;;;;8.23;5.72;;;;;;;;;;6239946;28;20542;-80
2023/05/05 04:27:56;;;;;;;10.98;6.03;;;;;;;;;;6243730;28;20053;-80
2023/05/05 04:30:59;;;;;;;9.23;7.22;;;;;;;;;;6241327;28;20055;-79
2023/05/05 04:34:03;;;;;;;11.77;7.80;;;;;;;;;;6245047;28;20053;-79
2023/05/05 04:37:05;;;;;;;11.00;7.25;;;;;;;;;;6240516;28;20121;-78
2023/05/05 04:40:08;;;;;;;9.07;5.78;;;;;;;;;;6241092;28;20389;-79
2023/05/05 04:43:11;;;;;;;10.00;5.82;;;;;;;;;;6245662;28;20061;-80
2023/05/05 04:46:13;;;;;;;8.82;5.95;;;;;;;;;;6239925;28;20049;-80
2023/05/05 04:49:15;;;;;;;8.52;5.68;;;;;;;;;;6245857;28;20044;-79
2023/05/05 04:52:17;;;;;;;8.70;5.90;;;;;;;;;;6239526;28;20049;-80
2023/05/05 04:55:19;;;;;;;8.45;5.60;;;;;;;;;;6242860;28;20052;-81
2023/05/05 04:58:20;;;;;;;9.32;5.95;;;;;;;;;;6260847;28;20057;-80
2023/05/05 05:01:22;;;;;;;10.93;6.00;;;;;;;;;;6253559;28;20056;-79
2023/05/05 05:04:25;;;;;;;13.65;7.00;;;;;;;;;;6243331;28;20038;-79
2023/05/05 05:07:27;;;;;;;10.52;6.28;;;;;;;;;;6258907;28;20052;-78
2023/05/05 05:10:29;;;;;;;8.63;5.90;;;;;;;;;;6237528;28;20054;-79
2023/05/05 05:13:31;;;;;;;9.07;5.38;;;;;;;;;;6227493;28;20038;-79
2023/05/05 05:16:32;;;;;;;11.15;6.28;;;;;;;;;;6236873;28;20108;-79
2023/05/05 05:19:34;;;;;;;8.05;6.53;;;;;;;;;;6255474;28;20048;-79
2023/05/05 05:22:37;;;;;;;9.07;5.80;;;;;;;;;;6243778;28;20048;-79
2023/05/05 05:25:43;;;;;;;9.73;5.63;;;;;;;;;;6238311;28;20053;-80
2023/05/05 05:28:45;;;;;;;10.27;5.78;;;;;;;;;;6241728;28;20088;-78
2023/05/05 05:31:48;;;;;;;11.63;6.38;;;;;;;;;;6241744;28;20136;-80
2023/05/05 05:34:50;;;;;;;12.27;7.25;;;;;;;;;;6239773;28;20044;-78
2023/05/05 05:37:52;;;;;;;9.90;6.32;;;;;;;;;;6244706;28;20052;-79
2023/05/05 05:40:54;;;;;;;8.75;5.68;;;;;;;;;;6234038;28;20056;-78
2023/05/05 05:43:57;;;;;;;8.15;5.60;;;;;;;;;;6236072;28;20049;-77
2023/05/05 05:47:00;;;;;;;10.18;5.70;;;;;;;;;;6254454;28;20044;-79
2023/05/05 05:50:03;;;;;;;9.32;5.35;;;;;;;;;;6256391;28;20051;-78
2023/05/05 05:53:06;;;;;;;9.10;5.82;;;;;;;;;;6252892;28;20582;-77
2023/05/05 05:56:08;;;;;;;8.35;5.50;;;;;;;;;;6256892;28;20056;-78
2023/05/05 05:59:10;;;;;;;8.75;5.50;;;;;;;;;;6228092;28;20041;-78
2023/05/05 06:02:13;;;;;;;;;;;;;;;;;;6235649;28;20507;-78
2023/05/05 06:05:15;;;;;;;10.43;5.60;;;;;;;;;;6240543;28;19925;-78
2023/05/05 06:08:19;;;;;;;9.80;5.95;;;;;;;;;;6251234;28;20124;-77
2023/05/05 06:11:25;;;;;;;10.38;7.07;;;;;;;;;;6231693;28;20045;-78
2023/05/05 06:14:26;;;;;;;7.93;5.80;;;;;;;;;;6239172;28;20053;-78
2023/05/05 06:17:28;;;;;;;9.55;5.50;;;;;;;;;;6251797;28;20038;-80
2023/05/05 06:20:30;;;;;;;8.88;5.60;;;;;;;;;;6228233;28;20056;-79
2023/05/05 06:23:32;;;;;;;7.75;5.38;;;;;;;;;;6238409;28;20045;-79
2023/05/05 06:26:37;;;;;;;9.30;5.30;;;;;;;;;;6240286;28;20056;-79
2023/05/05 06:29:39;;;;;;;8.63;5.53;;;;;;;;;;6256346;28;20029;-80
2023/05/05 06:32:40;;;;;;;9.20;6.00;;;;;;;;;;6242557;28;20037;-78
2023/05/05 06:35:42;;;;;;;7.38;4.90;;;;;;;;;;6256531;28;20042;-79
2023/05/05 06:38:44;;;;;;;8.68;5.28;;;;;;;;;;6257771;28;20050;-78
2023/05/05 06:41:45;;;;;;;7.18;5.25;;;;;;;;;;6242205;28;20049;-77
2023/05/05 06:44:47;;;;;;;9.82;4.82;;;;;;;;;;6240874;28;20042;-80
2023/05/05 06:47:49;;;;;;;7.47;4.57;;;;;;;;;;6239956;28;20043;-80
2023/05/05 06:50:50;;;;;;;6.40;4.70;;;;;;;;;;6244322;28;20092;-79
2023/05/05 06:53:52;;;;;;;5.80;4.30;;;;;;;;;;6254310;28;20050;-80
2023/05/05 06:56:53;;;;;;;9.85;6.15;;;;;;;;;;6243659;28;20423;-79
2023/05/05 06:59:56;;;;;;;9.43;4.88;;;;;;;;;;6241874;28;20059;-79
2023/05/05 07:02:58;;;;;;;7.45;4.93;;;;;;;;;;6239153;28;20045;-77
2023/05/05 07:05:59;;;;;;;7.22;4.57;;;;;;;;;;6241700;28;20046;-78
2023/05/05 07:09:02;;;;;;;5.20;3.92;;;;;;;;;;6240364;28;20048;-77
2023/05/05 07:12:04;;;;;;;5.72;4.40;;;;;;;;;;6236681;28;20048;-77
2023/05/05 07:15:06;;;;;;;7.60;4.50;;;;;;;;;;6243291;28;20047;-77
2023/05/05 07:18:26;;;;;;;6.63;4.20;;;;;;;;;;6240216;28;20105;-78
2023/05/05 07:21:28;;;;;;;5.07;3.80;;;;;;;;;;6230484;28;20426;-77
2023/05/05 07:24:30;;;;;;;5.65;4.07;;;;;;;;;;6242994;28;20069;-78
2023/05/05 07:27:31;;;;;;;5.25;3.83;;;;;;;;;;6246927;28;20055;-77
2023/05/05 07:30:33;;;;;;;5.28;3.95;;;;;;;;;;6246035;28;20041;-79
2023/05/05 07:33:34;;;;;;;5.63;4.35;;;;;;;;;;6248514;28;20048;-77
2023/05/05 07:36:36;;;;;;;6.53;4.22;;;;;;;;;;6247060;28;20045;-78
2023/05/05 07:39:38;;;;;;;5.97;4.60;;;;;;;;;;6245940;28;20049;-77
2023/05/05 07:42:39;;;;;;;10.75;4.50;;;;;;;;;;6241617;28;20045;-78
2023/05/05 07:45:41;;;;;;;7.30;4.53;;;;;;;;;;6258435;28;20111;-77
2023/05/05 07:48:43;;;;;;;9.30;4.57;;;;;;;;;;6246153;28;20037;-77
2023/05/05 07:51:45;;;;;;;6.32;4.47;;;;;;;;;;6244858;28;20056;-77
2023/05/05 07:54:47;;;;;;;10.68;4.80;;;;;;;;;;6239818;28;20427;-77
2023/05/05 07:57:49;;;;;;;7.80;5.10;;;;;;;;;;6243455;28;20060;-77
2023/05/05 08:00:50;;;;;;;8.80;5.57;;;;;;;;;;6237807;28;20136;-77
2023/05/05 08:03:52;;;;;;;8.13;4.68;;;;;;;;;;6235644;28;20042;-76
2023/05/05 08:06:53;;;;;;;5.80;4.63;;;;;;;;;;6235772;28;20049;-77
2023/05/05 08:09:56;;;;;;;7.53;4.80;;;;;;;;;;6237641;28;20435;-77
2023/05/05 08:12:57;;;;;;;8.05;5.00;;;;;;;;;;6247344;28;20125;-77
2023/05/05 08:15:59;;;;;;;5.93;5.30;;;;;;;;;;6254443;28;20600;-77
2023/05/05 08:19:01;;;;;;;6.07;4.95;;;;;;;;;;6256697;28;20038;-78
2023/05/05 08:22:03;;;;;;;5.57;4.67;;;;;;;;;;6237802;28;20056;-77
2023/05/05 08:25:05;;;;;;;5.68;4.95;;;;;;;;;;6239453;28;20411;-76
2023/05/05 08:28:07;;;;;;;5.57;5.07;;;;;;;;;;6242402;28;20044;-77
2023/05/05 08:31:08;;;;;;;7.03;4.93;;;;;;;;;;6240883;28;20526;-77
2023/05/05 08:34:10;;;;;;;6.70;5.50;;;;;;;;;;6246998;28;20072;-78
2023/05/05 08:37:12;;;;;;;7.72;4.85;;;;;;;;;;6238681;28;20057;-77
2023/05/05 08:40:13;;;;;;;5.35;4.80;;;;;;;;;;6241055;28;20563;-77
2023/05/05 08:43:19;;;;;;;7.75;5.18;;;;;;;;;;6241122;28;20073;-77
2023/05/05 08:46:21;;;;;;;5.63;5.07;;;;;;;;;;6238268;28;20053;-77
2023/05/05 08:49:24;;;;;;;6.97;5.75;;;;;;;;;;6258589;28;20039;-77
2023/05/05 08:52:28;;;;;;;7.18;5.40;;;;;;;;;;6243468;28;20041;-76
2023/05/05 08:55:33;;;;;;;6.97;5.03;;;;;;;;;;6239903;28;20418;-80
2023/05/05 08:58:36;;;;;;;6.75;5.40;;;;;;;;;;6258682;28;20045;-79
2023/05/05 09:01:40;;;;;;;7.90;5.90;;;;;;;;;;6257107;28;20075;-76
2023/05/05 09:04:42;;;;;;;6.97;5.57;;;;;;;;;;6232999;28;20618;-77
2023/05/05 09:07:46;;;;;;;8.17;5.20;;;;;;;;;;6241737;28;20029;-77
2023/05/05 09:10:50;;;;;;;6.63;5.30;;;;;;;;;;6228170;28;20049;-77
2023/05/05 09:13:52;;;;;;;8.25;4.97;;;;;;;;;;6238380;28;20048;-77
2023/05/05 09:16:54;;;;;;;6.18;4.13;;;;;;;;;;6230779;28;20103;-78
2023/05/05 09:20:07;;;;;;;6.07;4.63;;;;;;;;;;6235314;28;20511;-77
2023/05/05 09:23:17;;;;;;;5.50;4.22;;;;;;;;;;6236168;28;20053;-80
2023/05/05 09:26:19;;;;;;;4.55;3.97;;;;;;;;;;6236541;28;20055;-83
2023/05/05 09:29:21;;;;;;;4.97;3.67;;;;;;;;;;6254589;28;20045;-78
2023/05/05 09:32:24;;;;;;;6.15;3.63;;;;;;;;;;6239516;28;20045;-81
2023/05/05 09:35:26;;;;;;;5.68;3.70;;;;;;;;;;6241353;28;20072;-80
2023/05/05 09:38:27;;;;;;;7.20;3.97;;;;;;;;;;6239328;28;20049;-81
2023/05/05 09:41:37;;;;;;;7.63;3.72;;;;;;;;;;6246788;28;20045;-80
2023/05/05 09:44:39;;;;;;;7.22;3.92;;;;;;;;;;6243911;28;20422;-80
2023/05/05 09:47:41;;;;;;;;;;;;;;;;;;6252851;28;20041;-78
2023/05/05 09:50:43;;;;;;;4.60;3.58;;;;;;;;;;6245984;28;20020;-78
2023/05/05 09:53:44;;;;;;;6.05;3.88;;;;;;;;;;6245035;28;20045;-78
2023/05/05 09:56:46;;;;;;;3.47;3.17;;;;;;;;;;6242829;28;20127;-78
2023/05/05 10:00:00;;;;;;;5.18;3.55;;;;;;;;;;6242404;28;20037;-78
2023/05/05 10:03:02;;;;;;;6.32;3.15;;;;;;;;;;6238087;28;20049;-78
2023/05/05 10:06:06;;;;;;;3.42;3.00;;;;;;;;;;6242187;28;20056;-78
2023/05/05 10:09:08;;;;;;;5.05;2.42;;;;;;;;;;6250850;28;20037;-78
2023/05/05 10:12:09;;;;;;;2.50;1.80;;;;;;;;;;6249820;28;20072;-78
2023/05/05 10:15:13;;;;;;;2.35;1.88;;;;;;;;;;6245116;28;20040;-80
2023/05/05 10:18:19;;;;;;;2.65;1.60;;;;;;;;;;6238845;28;20052;-79
2023/05/05 10:21:23;;;;;;;2.38;1.50;;;;;;;;;;6234848;28;20057;-78
2023/05/05 10:24:33;;;;;;;2.95;1.70;;;;;;;;;;6259727;28;20041;-78
2023/05/05 10:27:43;;;;;;;1.63;1.52;;;;;;;;;;6252047;28;20068;-78
2023/05/05 10:30:47;;;;;;;1.80;1.70;;;;;;;;;;6241093;28;20037;-77
2023/05/05 10:33:59;;;;;;;2.70;1.90;;;;;;;;;;6243170;28;20050;-78
2023/05/05 10:37:01;;;;;;;4.97;2.15;;;;;;;;;;6260303;28;20057;-77
2023/05/05 10:40:03;;;;;;;2.97;2.35;;;;;;;;;;6252492;28;20161;-78
2023/05/05 10:43:06;;;;;;;2.65;2.13;;;;;;;;;;6260208;28;20132;-78
2023/05/05 10:46:08;;;;;;;3.70;2.17;;;;;;;;;;6241351;28;20076;-78
2023/05/05 10:49:37;;;;;;;3.00;2.33;;;;;;;;;;6248188;28;20044;-78
2023/05/05 10:52:41;;;;;;;2.10;1.98;;;;;;;;;;6246380;28;20446;-77
2023/05/05 10:55:51;;;;;;;2.72;2.05;;;;;;;;;;6243714;28;20392;-79
2023/05/05 10:58:52;;;;;;;2.25;2.03;;;;;;;;;;6261236;28;20045;-77
2023/05/05 11:02:20;;;;;;;2.40;1.90;;;;;;;;;;6247903;28;20053;-78
2023/05/05 11:05:22;;;;;;;3.10;1.90;;;;;;;;;;6242341;28;20064;-79
2023/05/05 11:08:25;;;;;;;2.60;1.70;;;;;;;;;;6248444;28;20451;-77
2023/05/05 11:12:02;;;;;;;2.80;1.92;;;;;;;;;;6240468;28;20046;-78
2023/05/05 11:15:22;;;;;;;1.92;1.65;;;;;;;;;;6247946;28;20046;-78
2023/05/05 11:18:35;;;;;;;2.00;1.80;;;;;;;;;;6245673;28;20048;-77
2023/05/05 11:22:00;;;;;;;6.32;2.00;;;;;;;;;;6250639;28;20458;-78
2023/05/05 11:25:44;;;;;;;4.20;1.60;;;;;;;;;;6247150;28;20104;-79
2023/05/05 11:28:56;;;;;;;2.65;1.55;;;;;;;;;;6242690;28;20083;-78
2023/05/05 11:32:12;;;;;;;4.25;1.60;;;;;;;;;;6247697;28;20063;-76
2023/05/05 11:35:14;;;;;;;2.78;1.33;;;;;;;;;;6257583;28;20049;-77
2023/05/05 11:38:18;;;;;;;2.15;1.60;;;;;;;;;;6262143;28;20812;-78
2023/05/05 11:41:32;;;;;;;1.65;1.50;;;;;;;;;;6258720;28;20041;-79
2023/05/05 11:44:34;;;;;;;2.85;1.60;;;;;;;;;;6241250;28;20041;-78
2023/05/05 11:47:36;;;;;;;2.80;1.63;;;;;;;;;;6241042;28;20060;-77
2023/05/05 11:50:39;;;;;;;5.25;1.67;;;;;;;;;;6263873;28;20049;-77
2023/05/05 11:53:50;;;;;;;;;;;;;;;;;;6245439;28;20045;-78
2023/05/05 11:57:06;;;;;;;2.05;1.30;;;;;;;;;;6256624;28;19925;-79
2023/05/05 12:00:08;;;;;;;1.40;1.30;;;;;;;;;;6244570;28;20105;-79
2023/05/05 12:03:11;;;;;;;1.80;1.17;;;;;;;;;;6242611;28;20042;-78
2023/05/05 12:06:13;;;;;;;1.30;1.20;;;;;;;;;;6240083;28;20049;-78
2023/05/05 12:09:16;;;;;;;1.75;1.10;;;;;;;;;;6260521;28;20048;-78
2023/05/05 12:12:18;;;;;;;3.33;1.20;;;;;;;;;;6222892;28;20060;-78
2023/05/05 12:15:28;;;;;;;2.22;1.10;;;;;;;;;;6245119;28;20051;-78
2023/05/05 12:18:29;;;;;;;1.10;1.00;;;;;;;;;;6245653;28;20041;-78
2023/05/05 12:21:31;;;;;;;1.98;1.02;;;;;;;;;;6245626;28;20120;-79
2023/05/05 12:24:33;;;;;;;1.48;1.02;;;;;;;;;;6260308;28;20041;-78
2023/05/05 12:27:35;;;;;;;2.15;1.00;;;;;;;;;;6260642;28;20041;-80
2023/05/05 12:30:37;;;;;;;2.13;0.90;;;;;;;;;;6245377;28;20041;-79
2023/05/05 12:33:40;;;;;;;1.50;0.70;;;;;;;;;;6249869;28;20056;-80
2023/05/05 12:36:41;;;;;;;;;;;;;;;;;;6246655;28;20053;-78
2023/05/05 12:39:44;;;;;;;0.90;0.83;;;;;;;;;;6246696;28;19982;-78
2023/05/05 12:42:46;;;;;;;1.45;1.05;;;;;;;;;;6244639;28;20048;-80
2023/05/05 12:45:48;;;;;;;1.27;0.87;;;;;;;;;;6244571;28;20049;-78
2023/05/05 12:49:18;;;;;;;3.75;1.10;;;;;;;;;;6241368;28;20566;-77
2023/05/05 12:52:20;;;;;;;1.30;1.05;;;;;;;;;;6230202;28;20064;-77
2023/05/05 12:55:36;;;;;;;2.13;0.83;;;;;;;;;;6238271;28;20045;-77
2023/05/05 12:58:47;;;;;;;1.77;0.88;;;;;;;;;;6243333;28;20048;-78
2023/05/05 13:01:50;;;;;;;1.10;0.90;;;;;;;;;;6233674;28;20044;-78
2023/05/05 13:04:53;;;;;;;3.63;1.25;;;;;;;;;;6234892;28;20542;-76
2023/05/05 13:07:55;;;;;;;3.05;1.08;;;;;;;;;;6237406;28;20054;-77
2023/05/05 13:10:59;;;;;;;3.92;2.10;;;;;;;;;;6235570;28;20049;-76
2023/05/05 13:14:00;;;;;;;5.25;2.40;;;;;;;;;;6238606;28;20067;-76
2023/05/05 13:17:03;;;;;;;3.27;2.73;;;;;;;;;;6241327;28;20135;-77
2023/05/05 13:20:06;;;;;;;2.88;2.67;;;;;;;;;;6249229;28;20131;-76
2023/05/05 13:23:08;;;;;;;4.45;2.80;;;;;;;;;;6241654;28;20036;-75
2023/05/05 13:26:13;;;;;;;3.60;2.90;;;;;;;;;;6237806;28;20053;-76
2023/05/05 13:29:15;;;;;;;2.80;2.50;;;;;;;;;;6234095;28;20037;-77
2023/05/05 13:32:17;;;;;;;2.95;2.63;;;;;;;;;;6242173;28;20060;-77
2023/05/05 13:35:18;;;;;;;4.70;2.92;;;;;;;;;;6235227;28;20053;-77
2023/05/05 13:38:20;;;;;;;2.40;2.20;;;;;;;;;;6250933;28;20056;-75
2023/05/05 13:41:21;;;;;;;2.45;2.10;;;;;;;;;;6235221;28;20045;-76
2023/05/05 13:44:23;;;;;;;2.90;2.22;;;;;;;;;;6236027;28;20045;-74
2023/05/05 13:47:24;;;;;;;3.88;2.33;;;;;;;;;;6238957;28;20041;-77
2023/05/05 13:50:26;;;;;;;3.53;1.90;;;;;;;;;;6241214;28;20562;-77
2023/05/05 13:53:28;;;;;;;3.63;2.00;;;;;;;;;;6254768;28;20500;-76
2023/05/05 13:56:29;;;;;;;3.25;1.90;;;;;;;;;;6235937;28;20053;-76
2023/05/05 13:59:31;;;;;;;2.78;1.88;;;;;;;;;;6240526;28;20509;-76
2023/05/05 14:02:33;;;;;;;2.35;2.00;;;;;;;;;;6232962;28;20116;-76
2023/05/05 14:05:36;;;;;;;2.40;1.70;;;;;;;;;;6236718;28;20049;-76
2023/05/05 14:08:37;;;;;;;2.65;1.58;;;;;;;;;;6247679;28;20064;-76
2023/05/05 14:11:39;;;;;;;2.72;1.70;;;;;;;;;;6254830;28;20760;-76
2023/05/05 14:14:41;;;;;;;5.25;1.88;;;;;;;;;;6244038;28;20118;-75
2023/05/05 14:17:43;;;;;;;2.88;1.75;;;;;;;;;;6252152;28;20053;-78
2023/05/05 14:20:45;;;;;;;3.27;1.83;;;;;;;;;;6251184;28;20118;-78
2023/05/05 14:23:46;;;;;;;3.03;1.80;;;;;;;;;;6265948;28;20057;-77
2023/05/05 14:26:48;;;;;;;1.80;1.63;;;;;;;;;;6246349;28;20049;-77
2023/05/05 14:29:50;;;;;;;1.80;1.30;;;;;;;;;;6249884;28;20055;-77
2023/05/05 14:32:51;;;;;;;3.05;1.45;;;;;;;;;;6244366;28;20051;-79
2023/05/05 14:35:54;;;;;;;4.20;1.45;;;;;;;;;;6239190;28;20048;-78
2023/05/05 14:38:55;;;;;;;1.60;1.17;;;;;;;;;;6260483;28;20045;-80
2023/05/05 14:41:57;;;;;;;2.58;1.25;;;;;;;;;;6242469;28;20072;-78
2023/05/05 14:44:59;;;;;;;3.35;1.27;;;;;;;;;;6243352;28;20052;-77
2023/05/05 14:48:01;;;;;;;2.95;1.45;;;;;;;;;;6244302;28;20053;-77
2023/05/05 14:51:03;;;;;;;1.60;1.30;;;;;;;;;;6245251;28;20364;-79
2023/05/05 14:54:05;;;;;;;2.83;1.23;;;;;;;;;;6243285;28;20419;-78
2023/05/05 14:57:21;;;;;;;2.80;1.38;;;;;;;;;;6250335;28;20411;-78
2023/05/05 15:00:22;;;;;;;1.45;1.10;;;;;;;;;;6251592;28;20096;-77
2023/05/05 15:03:24;;;;;;;1.50;1.20;;;;;;;;;;6236593;28;20049;-78
2023/05/05 15:06:26;;;;;;;1.55;1.30;;;;;;;;;;6239094;28;20044;-77
2023/05/05 15:09:28;;;;;;;1.88;1.10;;;;;;;;;;6253240;28;20513;-78
2023/05/05 15:12:30;;;;;;;1.90;1.27;;;;;;;;;;6237590;28;20146;-79
2023/05/05 15:15:31;;;;;;;2.58;1.20;;;;;;;;;;6243604;28;20049;-78
2023/05/05 15:18:33;;;;;;;2.25;1.38;;;;;;;;;;6236035;28;20039;-77
2023/05/05 15:21:34;;;;;;;1.42;1.30;;;;;;;;;;6258195;28;20052;-78
2023/05/05 15:24:36;;;;;;;2.05;1.20;;;;;;;;;;6235935;28;20083;-79
2023/05/05 15:27:38;;;;;;;1.20;1.10;;;;;;;;;;6243122;28;20068;-79
2023/05/05 15:30:40;;;;;;;1.80;1.20;;;;;;;;;;6236539;28;20049;-77
2023/05/05 15:33:43;;;;;;;2.38;1.40;;;;;;;;;;6244387;28;20041;-79
2023/05/05 15:36:45;;;;;;;1.67;1.20;;;;;;;;;;6258801;28;20046;-79
2023/05/05 15:39:46;;;;;;;1.58;1.33;;;;;;;;;;6240380;28;20508;-77
2023/05/05 15:42:51;;;;;;;2.85;1.40;;;;;;;;;;6238930;28;20521;-79
2023/05/05 15:45:53;;;;;;;1.70;1.40;;;;;;;;;;6241893;28;20041;-79
2023/05/05 15:48:54;;;;;;;1.25;1.15;;;;;;;;;;6254626;28;20050;-79
2023/05/05 15:51:56;;;;;;;2.25;1.45;;;;;;;;;;6240679;28;20049;-80
2023/05/05 15:54:58;;;;;;;3.03;1.40;;;;;;;;;;6240986;28;20675;-80
2023/05/05 15:58:00;;;;;;;5.90;1.48;;;;;;;;;;6236945;28;20033;-79
2023/05/05 16:01:01;;;;;;;4.45;1.45;;;;;;;;;;6234699;28;20068;-80
2023/05/05 16:04:03;;;;;;;2.65;1.38;;;;;;;;;;6241241;28;20051;-78
2023/05/05 16:07:05;;;;;;;4.22;1.42;;;;;;;;;;6240283;28;20060;-79
2023/05/05 16:10:07;;;;;;;2.97;1.40;;;;;;;;;;6245955;28;20495;-79
2023/05/05 16:13:09;;;;;;;3.72;1.30;;;;;;;;;;6242932;28;20695;-78
2023/05/05 16:16:10;;;;;;;3.08;1.42;;;;;;;;;;6242065;28;20046;-80
2023/05/05 16:19:12;;;;;;;2.08;1.40;;;;;;;;;;6237852;28;20109;-79
2023/05/05 16:22:14;;;;;;;2.08;1.88;;;;;;;;;;6246821;28;20049;-78
2023/05/05 16:25:17;;;;;;;3.63;1.40;;;;;;;;;;6236468;28;20141;-79
2023/05/05 16:28:18;;;;;;;;;;;;;;;;;;6258547;28;20041;-79
2023/05/05 16:31:20;;;;;;;;;;;;;;;;;;6239087;28;19928;-79
2023/05/05 16:34:21;;;;;;;;;;;;;;;;;;6240861;28;19921;-79
2023/05/05 16:37:23;;;;;;;;;;;;;;;;;;6239062;28;19940;-78
2023/05/05 16:40:24;;;;;;;;;;;;;;;;;;6247014;28;19928;-80
2023/05/05 16:43:25;;;;;;;;;;;;;;;;;;6240955;28;19928;-79
2023/05/05 16:46:27;;;;;;;;;;;;;;;;;;6243929;28;19924;-79
2023/05/05 16:49:28;;;;;;;;;;;;;;;;;;6245837;28;19930;-79
2023/05/05 16:52:30;;;;;;;;;;;;;;;;;;6251489;28;19948;-78
2023/05/05 16:55:31;;;;;;;;;;;;;;;;;;6257201;28;19925;-78
2023/05/05 16:58:33;;;;;;;;;;;;;;;;;;6242601;28;19944;-79
2023/05/05 17:01:34;;;;;;;;;;;;;;;;;;6248132;28;19921;-79
2023/05/05 17:04:36;;;;;;;;;;;;;;;;;;6245527;28;20019;-79
2023/05/05 17:07:37;;;;;;;;;;;;;;;;;;6246881;28;20640;-80
2023/05/05 17:10:40;;;;;;;;;;;;;;;;;;6242012;28;19936;-80
2023/05/05 17:13:41;;;;;;;;;;;;;;;;;;6262797;28;19956;-81
2023/05/05 17:16:43;;;;;;;;;;;;;;;;;;6239086;28;19920;-80
2023/05/05 17:19:44;;;;;;;;;;;;;;;;;;6241799;28;20383;-80
2023/05/05 17:22:46;;;;;;;;;;;;;;;;;;6239359;28;19921;-79
2023/05/05 17:25:47;;;;;;;;;;;;;;;;;;6241393;28;20565;-79
2023/05/05 17:28:49;;;;;;;;;;;;;;;;;;6244054;28;19928;-79
2023/05/05 17:31:50;;;;;;;;;;;;;;;;;;6240832;28;19925;-80
2023/05/05 17:34:52;;;;;;;;;;;;;;;;;;6243872;28;20349;-80
2023/05/05 17:37:53;;;;;;;;;;;;;;;;;;6242055;28;20390;-78
2023/05/05 17:40:55;;;;;;;;;;;;;;;;;;6234074;28;19935;-79
2023/05/05 17:43:58;;;;;;;;;;;;;;;;;;6239054;28;19925;-78
2023/05/05 17:47:06;;;;;;;;;;;;;;;;;;6251243;28;19921;-77
2023/05/05 17:50:09;;;;;;;;;;;;;;;;;;6238794;28;19928;-78
2023/05/05 17:53:11;;;;;;;;;;;;;;;;;;6241452;28;19924;-79
2023/05/05 17:56:13;;;;;;;;;;;;;;;;;;6252878;28;19929;-79
2023/05/05 17:59:17;;;;;;;;;;;;;;;;;;6237899;28;20012;-79
2023/05/05 18:02:18;;;;;;;;;;;;;;;;;;6236541;28;19921;-78
2023/05/05 18:05:20;;;;;;;;;;;;;;;;;;6235400;28;19928;-79
2023/05/05 18:08:22;;;;;;;;;;;;;;;;;;6245109;28;19927;-79
2023/05/05 18:11:26;;;;;;;;;;;;;;;;;;6244736;28;19944;-79
2023/05/05 18:14:27;;;;;;;;;;;;;;;;;;6237619;28;19925;-79
2023/05/05 18:17:29;;;;;;;;;;;;;;;;;;6237005;28;19932;-79
2023/05/05 18:20:30;;;;;;;;;;;;;;;;;;6239970;28;19928;-78
2023/05/05 18:23:32;;;;;;;;;;;;;;;;;;6254830;28;19928;-79
2023/05/05 18:26:34;;;;;;;;;;;;;;;;;;6239550;28;20263;-78
2023/05/05 18:29:35;;;;;;;;;;;;;;;;;;6241727;28;19921;-79
2023/05/05 18:32:37;;;;;;;;;;;;;;;;;;6239199;28;19921;-78
2023/05/05 18:35:38;;;;;;;;;;;;;;;;;;6244174;28;19952;-79
2023/05/05 18:38:40;;;;;;;;;;;;;;;;;;6242931;28;19921;-79
2023/05/05 18:41:41;;;;;;;;;;;;;;;;;;6237612;28;19927;-80